Time;durP1;ratioP1;P1;durP2;ratioP2;P2;SDS_P1;SDS_P2;PMS_P1;PMS_P2;Temp;Humidity;BMP_temperature;BMP_pressure;BME280_temperature;BME280_humidity;BME280_pressure;Samples;Min_cycle;Max_cycle;Signal;HPM_P1;HPM_P2
2021/12/20 00:01:19;;;;;;;1.02;0.93;;;6.90;58.50;;;5.25;66.02;101764.81;8424764;28;20587;-82
2021/12/20 00:05:41;;;;;;;1.42;0.90;;;6.90;58.80;;;5.18;65.89;101752.84;8430354;28;20142;-82
2021/12/20 00:10:04;;;;;;;1.05;0.77;;;6.80;58.50;;;5.13;65.53;101741.75;8428993;28;20131;-82
2021/12/20 00:14:26;;;;;;;1.00;0.77;;;6.80;58.40;;;5.12;65.76;101737.44;8415191;28;20197;-82
2021/12/20 00:18:48;;;;;;;2.65;0.80;;;6.80;58.20;;;5.04;65.62;101731.50;8429651;28;20119;-82
2021/12/20 00:23:09;;;;;;;0.70;0.70;;;6.80;58.40;;;5.02;65.76;101748.78;8429853;28;20127;-82
2021/12/20 00:27:31;;;;;;;1.98;0.93;;;6.70;58.40;;;5.04;65.75;101749.63;8433970;28;20115;-82
2021/12/20 00:31:53;;;;;;;0.60;0.60;;;6.50;58.40;;;5.02;65.55;101746.22;8428318;28;20551;-81
2021/12/20 00:36:21;;;;;;;0.77;0.70;;;6.70;58.50;;;4.98;65.58;101742.81;8414906;28;20131;-81
2021/12/20 00:40:43;;;;;;;3.88;0.88;;;6.70;58.50;;;5.00;65.69;101753.16;8427898;28;20119;-81
2021/12/20 00:45:06;;;;;;;0.50;0.50;;;6.60;58.30;;;4.98;65.60;101765.28;8436438;28;20123;-82
2021/12/20 00:49:28;;;;;;;0.55;0.52;;;6.60;58.30;;;4.89;66.04;101750.75;8418919;28;20127;-82
2021/12/20 00:53:49;;;;;;;0.90;0.73;;;6.60;58.20;;;4.88;65.61;101755.03;8428810;28;20130;-82
2021/12/20 00:58:11;;;;;;;1.33;0.57;;;6.60;58.20;;;4.86;65.42;101764.59;8416499;28;20463;-81
2021/12/20 01:02:33;;;;;;;0.52;0.50;;;6.50;58.10;;;4.83;65.75;101764.63;8429267;28;20123;-81
2021/12/20 01:06:54;;;;;;;2.47;1.05;;;6.50;58.30;;;4.77;65.74;101754.34;8405564;28;20548;-81
2021/12/20 01:11:22;;;;;;;2.83;0.80;;;6.50;58.30;;;4.80;65.77;101777.59;8424045;28;20119;-82
2021/12/20 01:15:50;;;;;;;1.80;0.60;;;6.50;58.10;;;4.83;65.67;101787.03;8406043;28;20122;-81
2021/12/20 01:20:13;;;;;;;1.17;0.70;;;6.50;58.20;;;4.81;65.64;101779.31;8422420;28;20126;-81
2021/12/20 01:24:34;;;;;;;1.33;0.63;;;6.50;58.30;;;4.75;65.71;101788.88;8420687;28;20127;-82
2021/12/20 01:28:56;;;;;;;0.60;0.60;;;6.40;58.40;;;4.71;65.64;101793.25;8413648;28;20040;-82
2021/12/20 01:33:18;;;;;;;0.70;0.70;;;6.50;58.20;;;4.69;65.47;101795.00;8422283;28;20123;-81
2021/12/20 01:37:40;;;;;;;0.73;0.65;;;6.40;58.20;;;4.68;65.74;101793.28;8412717;28;20471;-81
2021/12/20 01:42:04;;;;;;;1.27;0.70;;;6.40;58.30;;;4.64;65.55;101789.03;8420124;28;20135;-81
2021/12/20 01:46:26;;;;;;;0.73;0.70;;;6.40;58.30;;;4.59;65.68;101793.41;8414197;28;20032;-82
2021/12/20 01:51:44;;;;;;;1.02;0.93;;;6.30;58.20;;;4.58;65.69;101802.91;8430768;28;20115;-81
2021/12/20 01:55:33;;;;;;;0.85;0.70;;;6.30;58.20;;;4.62;65.45;101803.72;8416562;28;20123;-81
2021/12/20 01:59:55;;;;;;;1.55;0.90;;;6.30;58.30;;;4.60;65.37;101808.06;8425220;28;20119;-82
2021/12/20 02:04:19;;;;;;;0.73;0.57;;;6.30;58.20;;;4.58;65.68;101802.06;8406891;28;20130;-82
2021/12/20 02:08:41;;;;;;;1.63;0.90;;;6.20;58.20;;;4.53;65.62;101796.06;8410804;28;20506;-81
2021/12/20 02:13:02;;;;;;;1.73;1.13;;;6.10;58.20;;;4.54;65.42;101802.97;8416643;28;20457;-81
2021/12/20 02:17:24;;;;;;;0.80;0.80;;;6.40;58.30;;;4.45;65.63;101798.75;8424065;28;20127;-81
2021/12/20 02:21:46;;;;;;;1.35;0.90;;;6.20;58.30;;;4.47;65.72;101812.53;8424961;28;20118;-82
2021/12/20 02:26:11;;;;;;;2.08;1.10;;;6.20;58.30;;;4.46;65.47;101797.91;8425029;28;20478;-81
2021/12/20 02:39:36;;;;;;;2.60;0.90;;;6.30;58.40;;;4.43;65.30;101795.34;8428497;28;20120;-82
2021/12/20 02:44:05;;;;;;;1.00;0.75;;;6.10;58.30;;;4.39;65.17;101802.28;8422768;28;20544;-82
2021/12/20 02:48:27;;;;;;;3.03;1.17;;;6.10;58.30;;;4.41;65.44;101805.72;8399489;28;20046;-82
2021/12/20 02:52:49;;;;;;;1.77;0.75;;;6.10;58.30;;;4.42;65.46;101801.38;8430594;28;20494;-82
2021/12/20 02:57:11;;;;;;;2.40;0.77;;;6.10;58.60;;;4.34;65.35;101798.88;8388195;28;996063;-79
2021/12/20 03:01:30;;;;;;;0.70;0.70;;;6.30;58.30;;;4.30;65.52;101807.56;8449271;28;20043;-79
2021/12/20 03:05:52;;;;;;;1.35;0.93;;;6.00;58.30;;;4.20;65.56;101791.28;8432832;28;20131;-80
2021/12/20 03:10:16;;;;;;;2.58;1.20;;;5.90;58.10;;;4.13;65.38;101794.84;8409180;28;20124;-79
2021/12/20 03:14:41;;;;;;;1.00;0.70;;;6.00;58.60;;;4.28;65.51;101800.69;8401681;28;20123;-80
2021/12/20 03:19:04;;;;;;;3.00;0.77;;;6.00;58.30;;;4.19;65.24;101793.91;8423135;28;20118;-79
2021/12/20 03:23:26;;;;;;;4.35;0.98;;;5.90;58.30;;;4.18;65.63;101802.53;8404421;28;20123;-80
2021/12/20 03:27:48;;;;;;;0.70;0.70;;;5.90;58.30;;;4.12;65.43;101812.94;8409262;28;20700;-79
2021/12/20 03:32:10;;;;;;;3.25;0.73;;;5.90;58.30;;;4.06;65.54;101807.84;8405324;28;20123;-79
2021/12/20 03:36:32;;;;;;;5.63;1.27;;;5.90;58.40;;;4.11;65.46;101814.69;8409137;28;20123;-79
2021/12/20 03:40:54;;;;;;;3.40;0.82;;;5.90;58.30;;;4.12;65.31;101815.53;8418750;28;20544;-78
2021/12/20 03:45:15;;;;;;;1.85;0.95;;;5.90;58.20;;;4.01;65.61;101799.28;8415320;28;20127;-78
2021/12/20 03:49:37;;;;;;;1.08;0.60;;;5.80;58.30;;;4.04;65.45;101809.59;8414926;28;20036;-79
2021/12/20 03:53:59;;;;;;;1.63;0.90;;;5.80;58.40;;;4.09;65.48;101823.31;8415121;28;20126;-79
2021/12/20 03:58:22;;;;;;;2.53;0.93;;;5.80;58.40;;;3.94;65.52;101803.66;8421892;28;20579;-79
2021/12/20 04:02:46;;;;;;;3.30;0.80;;;5.80;58.40;;;4.09;65.48;101831.91;8414543;28;20118;-80
2021/12/20 04:07:07;;;;;;;1.00;0.75;;;5.70;58.30;;;4.08;65.49;101830.22;8378633;28;20408;-78
2021/12/20 04:11:29;;;;;;;1.05;0.70;;;5.80;58.40;;;4.06;65.44;101837.13;8413668;28;20123;-79
2021/12/20 04:15:51;;;;;;;1.15;0.80;;;5.80;58.40;;;4.03;65.55;101837.16;8407022;28;20110;-78
2021/12/20 04:20:13;;;;;;;0.95;0.70;;;5.70;58.40;;;3.94;65.53;101822.63;8412333;28;20119;-79
2021/12/20 04:24:35;;;;;;;1.40;0.60;;;5.80;58.40;;;3.99;65.49;101838.06;8417372;28;20119;-79
2021/12/20 04:28:56;;;;;;;1.85;0.90;;;5.70;58.40;;;4.02;65.34;101844.91;8412854;28;20127;-77
2021/12/20 04:33:18;;;;;;;2.75;0.73;;;5.60;58.50;;;3.86;65.57;101823.53;8403388;28;20120;-79
2021/12/20 04:37:43;;;;;;;1.90;0.90;;;5.70;58.50;;;3.96;65.45;101838.94;8413186;28;20127;-79
2021/12/20 04:42:05;;;;;;;2.60;0.60;;;5.60;58.40;;;3.90;65.49;101844.16;8399642;28;20127;-78
2021/12/20 04:46:27;;;;;;;1.73;0.80;;;5.60;58.50;;;3.91;65.32;101851.03;8408566;28;20049;-79
2021/12/20 04:50:49;;;;;;;1.77;0.85;;;5.60;58.60;;;3.81;65.59;101825.31;8404191;28;20130;-80
2021/12/20 04:55:12;;;;;;;1.10;0.80;;;5.60;58.60;;;3.80;65.39;101837.38;8394330;28;20115;-80
2021/12/20 04:59:34;;;;;;;0.88;0.73;;;5.60;58.60;;;3.88;65.53;101858.81;8407048;28;20119;-79
2021/12/20 05:03:55;;;;;;;1.33;0.80;;;5.60;58.60;;;3.88;65.78;101848.50;8412048;28;20127;-78
2021/12/20 05:08:17;;;;;;;1.13;0.70;;;5.50;58.70;;;3.79;65.30;101835.66;8410844;28;20050;-81
2021/12/20 05:12:40;;;;;;;0.70;0.70;;;5.50;58.70;;;3.80;65.05;101844.28;8410399;28;20567;-79
2021/12/20 05:17:02;;;;;;;1.00;0.75;;;5.50;58.70;;;3.83;65.50;101867.50;8412489;28;20043;-79
2021/12/20 05:21:24;;;;;;;2.17;0.80;;;5.60;58.80;;;3.82;65.79;101853.72;8397264;28;20123;-78
2021/12/20 05:25:45;;;;;;;1.92;0.98;;;5.50;58.80;;;3.75;65.71;101852.06;8412797;28;20563;-78
2021/12/20 05:30:10;;;;;;;1.30;0.85;;;5.50;58.80;;;3.72;65.42;101847.75;8383267;28;20119;-79
2021/12/20 05:34:33;;;;;;;1.77;0.88;;;5.50;58.80;;;3.73;65.50;101857.25;8387913;28;20111;-79
2021/12/20 05:38:55;;;;;;;1.10;0.82;;;5.40;58.80;;;3.73;65.82;101854.66;8410551;28;20129;-79
2021/12/20 05:43:17;;;;;;;0.90;0.70;;;5.50;58.80;;;3.82;65.58;101876.97;8411003;28;20135;-80
2021/12/20 05:47:39;;;;;;;2.95;1.17;;;5.60;58.90;;;3.81;65.63;101876.97;8408868;28;20119;-80
2021/12/20 05:52:04;;;;;;;4.15;1.63;;;5.50;58.90;;;3.73;65.60;101861.56;8404744;28;20168;-78
2021/12/20 05:56:26;;;;;;;;;;;5.50;58.90;;;3.80;65.57;101873.53;8413317;28;20123;-78
2021/12/20 06:00:48;;;;;;;1.00;0.80;;;5.50;58.90;;;3.76;65.72;101877.03;8417717;28;19994;-79
2021/12/20 06:05:12;;;;;;;2.08;1.00;;;5.50;58.80;;;3.67;65.73;101866.75;8410762;28;20119;-78
2021/12/20 06:09:34;;;;;;;1.63;0.70;;;5.50;58.90;;;3.71;65.57;101889.13;8392751;28;20123;-79
2021/12/20 06:13:56;;;;;;;1.90;0.70;;;5.30;58.80;;;3.73;65.76;101897.72;8392014;28;20118;-78
2021/12/20 06:18:17;;;;;;;3.13;0.90;;;5.50;59.00;;;3.51;65.61;101866.03;8399526;28;20483;-79
2021/12/20 06:22:40;;;;;;;0.95;0.75;;;5.50;59.00;;;3.70;65.54;101897.72;8405529;28;20133;-78
2021/12/20 06:27:02;;;;;;;1.88;1.35;;;5.50;59.00;;;3.61;65.76;101885.75;8411865;28;20135;-77
2021/12/20 06:31:23;;;;;;;0.88;0.73;;;5.50;59.00;;;3.70;65.67;101908.94;8399872;28;20050;-79
2021/12/20 06:35:46;;;;;;;2.45;1.00;;;5.40;58.90;;;3.66;65.67;101904.66;8407839;28;20457;-79
2021/12/20 06:40:08;;;;;;;2.40;1.00;;;5.40;59.00;;;3.67;65.64;101916.72;8392506;28;20480;-80
2021/12/20 06:44:30;;;;;;;1.48;0.82;;;5.40;59.00;;;3.62;65.52;101904.69;8408143;28;20572;-80
2021/12/20 06:48:51;;;;;;;2.45;0.95;;;5.40;59.00;;;3.67;65.68;101921.00;8387343;28;20047;-79
2021/12/20 06:53:13;;;;;;;2.05;1.15;;;5.40;59.00;;;3.68;65.85;101921.00;8393363;28;20119;-79
2021/12/20 06:57:35;;;;;;;2.72;1.08;;;5.30;59.00;;;3.66;65.77;101925.31;8391645;28;20131;-80
2021/12/20 07:01:57;;;;;;;1.73;0.80;;;5.40;59.10;;;3.67;65.73;101928.75;8385463;28;20126;-79
2021/12/20 07:06:19;;;;;;;1.50;0.88;;;5.40;59.10;;;3.63;65.49;101927.91;8430235;28;20115;-78
2021/12/20 07:10:41;;;;;;;1.77;1.00;;;5.30;59.00;;;3.68;65.85;101945.97;8394670;28;20027;-78
2021/12/20 07:15:06;;;;;;;1.63;0.90;;;5.30;59.00;;;3.65;65.99;101935.69;8406826;28;20119;-80
2021/12/20 07:19:27;;;;;;;2.33;1.10;;;5.40;59.10;;;3.68;65.86;101957.16;8444311;28;20055;-80
2021/12/20 07:23:49;;;;;;;1.48;1.02;;;5.40;59.10;;;3.62;65.70;101957.22;8406583;28;20131;-78
2021/12/20 07:28:13;;;;;;;1.85;1.08;;;5.40;59.20;;;3.69;65.82;101958.88;8398359;28;20485;-77
2021/12/20 07:32:35;;;;;;;2.08;0.85;;;5.40;59.10;;;3.63;65.80;101945.16;8418959;28;20044;-79
2021/12/20 07:36:56;;;;;;;5.78;1.05;;;5.40;59.10;;;3.67;65.62;101964.91;8438347;28;20046;-79
2021/12/20 07:41:21;;;;;;;1.95;0.80;;;5.40;59.10;;;3.71;65.86;101971.78;8455238;28;20050;-79
2021/12/20 07:45:47;;;;;;;5.32;1.05;;;5.50;59.10;;;3.63;65.78;101955.47;8421650;28;20055;-79
2021/12/20 07:50:09;;;;;;;1.52;1.20;;;5.50;59.10;;;3.76;65.79;101977.78;8402171;28;20400;-80
2021/12/20 07:54:31;;;;;;;1.45;0.90;;;5.50;59.10;;;3.73;65.80;101985.56;8408303;28;20042;-79
2021/12/20 07:58:53;;;;;;;1.65;1.00;;;5.50;59.10;;;3.73;65.84;101982.97;8412299;28;20044;-79
2021/12/20 08:03:14;;;;;;;0.80;0.70;;;5.40;59.00;;;3.66;65.67;101968.38;8418105;28;20123;-78
2021/12/20 08:07:36;;;;;;;3.28;1.55;;;5.40;59.10;;;3.74;65.83;101998.44;8391954;28;20043;-80
2021/12/20 08:11:58;;;;;;;3.05;0.98;;;5.50;59.10;;;3.70;65.60;101995.88;8392468;28;20127;-80
2021/12/20 08:16:20;;;;;;;2.90;1.13;;;5.50;59.10;;;3.71;66.15;101995.03;8404758;28;20462;-80
2021/12/20 08:20:42;;;;;;;1.80;1.20;;;5.30;59.00;;;3.64;65.67;102001.94;8412546;28;20036;-80
2021/12/20 08:25:05;;;;;;;1.75;0.90;;;5.30;59.10;;;3.70;65.82;102013.97;8406115;28;20135;-80
2021/12/20 08:29:27;;;;;;;1.67;1.13;;;5.40;59.10;;;3.68;65.93;102005.38;8388891;28;20039;-80
2021/12/20 08:33:49;;;;;;;4.97;1.15;;;5.50;59.20;;;3.61;65.81;102003.69;8406618;28;20123;-80
2021/12/20 08:38:11;;;;;;;2.10;1.30;;;5.40;59.20;;;3.72;65.95;102017.41;8408064;28;20047;-76
2021/12/20 08:42:33;;;;;;;1.98;1.30;;;5.40;59.20;;;3.75;65.98;102032.88;8403639;28;20127;-80
2021/12/20 08:46:55;;;;;;;5.32;1.08;;;5.50;59.30;;;3.71;65.82;102024.31;8419130;28;20520;-79
2021/12/20 08:51:16;;;;;;;1.67;1.08;;;5.50;59.20;;;3.75;65.87;102031.19;8424919;28;20114;-79
2021/12/20 08:55:39;;;;;;;2.97;0.95;;;5.50;59.20;;;3.73;66.02;102025.16;8399386;28;20043;-80
2021/12/20 09:00:05;;;;;;;1.58;1.00;;;5.50;59.30;;;3.42;66.08;101971.97;8441744;22;20126;-93
2021/12/20 09:04:27;;;;;;;1.60;1.30;;;5.50;59.30;;;3.80;66.18;102031.13;8416607;28;20103;-93
2021/12/20 09:08:50;;;;;;;2.67;1.10;;;5.60;59.30;;;3.79;65.95;102029.44;8401970;27;20131;-92
2021/12/20 09:13:12;;;;;;;1.02;0.93;;;5.40;59.20;;;3.76;65.71;102027.72;8387428;28;20123;-91
2021/12/20 09:17:33;;;;;;;6.20;1.23;;;5.40;59.30;;;3.80;66.09;102031.13;8400411;28;20571;-93
2021/12/20 09:21:56;;;;;;;2.80;1.25;;;5.60;59.30;;;3.95;66.10;102045.69;8407987;28;20134;-92
2021/12/20 09:26:18;;;;;;;2.47;1.27;;;5.70;59.40;;;3.86;66.24;102023.38;8408020;28;20122;-91
2021/12/20 09:30:44;;;;;;;3.40;1.65;;;5.70;59.40;;;4.04;66.11;102055.09;8420588;28;20032;-89
2021/12/20 09:35:07;;;;;;;1.33;0.85;;;5.80;59.50;;;4.01;66.43;102052.56;8408185;28;20123;-92
2021/12/20 09:39:32;;;;;;;1.63;1.10;;;5.80;59.50;;;4.05;66.41;102047.38;8392648;28;20114;-90
2021/12/20 09:43:55;;;;;;;1.88;1.15;;;5.90;59.50;;;4.12;66.22;102048.16;8389936;28;20569;-91
2021/12/20 09:48:17;;;;;;;1.88;1.00;;;5.90;59.50;;;4.20;65.84;102054.97;8405448;28;21212;-91
2021/12/20 09:52:41;;;;;;;4.03;1.33;;;5.90;59.40;;;4.26;66.27;102079.94;8409717;28;20134;-92
2021/12/20 09:57:06;;;;;;;1.15;0.80;;;6.00;59.40;;;4.25;65.98;102075.66;8392195;28;20123;-91
2021/12/20 10:01:29;;;;;;;1.10;1.00;;;6.00;59.40;;;4.31;66.53;102078.19;8408716;28;20118;-91
2021/12/20 10:05:56;;;;;;;0.90;0.90;;;6.10;59.50;;;4.35;66.07;102069.53;8389262;28;20195;-91
2021/12/20 10:10:47;;;;;;;2.70;1.20;;;6.20;59.60;;;4.55;66.13;102087.47;8405543;28;20036;-90
2021/12/20 10:15:12;;;;;;;2.42;0.90;;;6.20;59.50;;;4.59;66.53;102077.94;8390068;28;20131;-90
2021/12/20 10:19:34;;;;;;;2.15;1.05;;;6.40;59.60;;;4.66;66.20;102077.03;8399817;28;20130;-90
2021/12/20 10:23:56;;;;;;;2.75;1.20;;;6.40;59.50;;;4.77;66.77;102082.97;8414200;28;20132;-89
2021/12/20 10:28:24;;;;;;;2.83;0.90;;;6.60;59.50;;;4.85;66.54;102096.69;8384201;28;20443;-88
2021/12/20 10:32:46;;;;;;;1.85;1.13;;;6.60;59.30;;;4.90;66.15;102095.81;8390976;28;20122;-89
2021/12/20 10:37:07;;;;;;;2.58;0.88;;;6.60;59.10;;;4.88;66.35;102093.22;8385209;28;20123;-88
2021/12/20 10:41:36;;;;;;;3.22;1.10;;;6.70;59.30;;;4.95;65.98;102088.88;8395783;28;20050;-87
2021/12/20 10:45:58;;;;;;;0.93;0.88;;;6.70;59.10;;;4.97;66.05;102098.31;8386549;28;20043;-88
2021/12/20 10:50:30;;;;;;;2.00;1.10;;;6.80;59.20;;;5.04;66.04;102109.47;8412350;28;20500;-87
2021/12/20 10:54:52;;;;;;;1.42;0.98;;;6.80;59.10;;;5.07;66.43;102112.03;8397994;28;20044;-87
2021/12/20 10:59:14;;;;;;;1.02;0.90;;;6.90;59.10;;;5.12;65.87;102110.25;8402747;28;20127;-87
2021/12/20 11:03:37;;;;;;;1.40;0.90;;;6.90;59.00;;;5.11;66.28;102098.19;8417363;28;20039;-87
2021/12/20 11:13:16;;;;;;;0.70;0.70;;;6.90;58.80;;;5.13;66.22;102101.63;8415789;28;20491;-87
2021/12/20 11:17:44;;;;;;;1.45;0.90;;;6.80;58.80;;;5.20;66.51;102113.63;8403403;28;20154;-87
2021/12/20 11:22:14;;;;;;;0.75;0.70;;;7.00;58.90;;;5.22;66.29;102108.44;8394697;28;20123;-87
2021/12/20 11:26:35;;;;;;;1.17;0.65;;;7.00;58.90;;;5.31;65.80;102106.59;8413325;28;20115;-87
2021/12/20 11:30:57;;;;;;;2.45;1.02;;;7.10;58.90;;;5.30;65.85;102098.84;8414234;28;20046;-86
2021/12/20 11:35:23;;;;;;;0.77;0.65;;;7.10;58.90;;;5.32;65.95;102100.53;8384531;28;20111;-87
2021/12/20 11:39:46;;;;;;;2.15;1.23;;;7.10;58.80;;;5.40;65.68;102104.75;8387286;28;20773;-87
2021/12/20 11:44:17;;;;;;;2.33;0.65;;;7.20;58.80;;;5.42;66.06;102108.19;8406507;28;20573;-87
2021/12/20 11:48:41;;;;;;;1.40;1.20;;;7.10;58.70;;;5.31;66.24;102075.50;8415038;28;20115;-88
2021/12/20 11:53:10;;;;;;;2.67;1.15;;;7.20;58.80;;;5.37;65.77;102091.84;8386776;28;20126;-88
2021/12/20 11:57:39;;;;;;;2.53;0.90;;;7.20;58.70;;;5.40;65.89;102094.41;8397663;28;20039;-88
2021/12/20 12:02:25;;;;;;;1.85;1.25;;;7.20;58.60;;;5.40;66.10;102090.09;8414376;28;20559;-89
2021/12/20 12:06:47;;;;;;;2.50;0.90;;;7.20;58.60;;;5.49;66.00;102094.31;8413840;28;20040;-88
2021/12/20 12:11:08;;;;;;;1.10;0.70;;;7.20;58.70;;;5.52;66.02;102104.63;8414452;28;20046;-88
2021/12/20 12:16:02;;;;;;;2.03;0.77;;;7.30;58.60;;;5.53;66.08;102096.81;8429433;28;20122;-87
2021/12/20 12:20:53;;;;;;;1.48;0.85;;;7.30;58.50;;;5.57;65.34;102100.25;8391410;28;20107;-88
2021/12/20 12:25:37;;;;;;;1.23;0.70;;;7.30;58.50;;;5.57;65.67;102102.00;8408321;28;20043;-87
2021/12/20 12:30:11;;;;;;;4.35;1.95;;;7.30;58.60;;;5.60;65.90;102096.78;8420571;28;20404;-87
2021/12/20 12:34:42;;;;;;;1.92;0.93;;;7.30;58.60;;;5.58;66.09;102086.41;8395493;28;20119;-88
2021/12/20 12:39:22;;;;;;;2.47;0.70;;;7.40;58.70;;;5.64;65.42;102093.25;8396407;28;20471;-88
2021/12/20 12:44:07;;;;;;;0.93;0.90;;;7.40;58.70;;;5.63;66.05;102091.53;8398541;28;20118;-88
2021/12/20 12:48:50;;;;;;;1.00;0.80;;;7.40;58.50;;;5.58;65.79;102094.19;8414083;28;20047;-87
2021/12/20 12:53:37;;;;;;;1.40;0.88;;;7.40;58.30;;;5.72;66.18;102112.16;8414726;28;20562;-88
2021/12/20 12:58:20;;;;;;;0.80;0.80;;;7.50;58.40;;;5.71;65.42;102105.25;8404750;28;20119;-88
2021/12/20 13:02:45;;;;;;;2.28;0.90;;;7.50;58.50;;;5.76;65.51;102117.28;8403405;28;20110;-88
2021/12/20 13:07:07;;;;;;;1.25;0.82;;;7.50;58.60;;;5.83;65.84;102119.78;8394319;28;20046;-87
2021/12/20 13:11:30;;;;;;;1.02;0.70;;;7.50;58.50;;;5.80;65.45;102112.06;8406757;28;20111;-89
2021/12/20 13:15:59;;;;;;;0.93;0.80;;;7.60;58.50;;;5.88;65.32;102123.19;8423340;28;20111;-88
2021/12/20 13:20:27;;;;;;;2.03;1.25;;;7.50;58.40;;;5.93;65.89;102137.81;8407831;28;20115;-89
2021/12/20 13:24:53;;;;;;;0.80;0.80;;;7.70;58.40;;;5.92;65.64;102130.91;8396198;28;20678;-87
2021/12/20 13:29:16;;;;;;;0.80;0.80;;;7.70;58.00;;;5.96;65.95;102131.75;8405901;28;20531;-88
2021/12/20 13:33:52;;;;;;;0.85;0.80;;;7.70;58.10;;;5.92;65.65;102130.06;8390364;28;20586;-88
2021/12/20 13:38:29;;;;;;;0.80;0.80;;;7.70;58.10;;;5.88;65.22;102128.38;8394266;28;20116;-87
2021/12/20 13:42:53;;;;;;;0.93;0.70;;;7.70;58.10;;;5.99;65.67;102149.84;8389466;28;20131;-88
2021/12/20 13:47:19;;;;;;;3.53;0.60;;;7.70;58.00;;;5.96;64.81;102139.53;8404713;28;20129;-88
2021/12/20 13:51:54;;;;;;;1.08;0.60;;;7.70;57.90;;;5.97;64.89;102143.84;8390522;28;20115;-87
2021/12/20 13:56:17;;;;;;;0.93;0.82;;;7.50;57.80;;;5.90;65.56;102142.19;8422203;28;20437;-87
2021/12/20 14:00:39;;;;;;;0.95;0.93;;;7.70;57.90;;;5.93;64.85;102144.72;8392012;28;20036;-87
2021/12/20 14:05:26;;;;;;;0.98;0.73;;;7.70;57.90;;;5.88;64.81;102149.97;8418964;28;20111;-89
2021/12/20 14:10:41;;;;;;;1.05;0.85;;;7.60;57.70;;;5.92;65.56;102163.75;8375816;28;20366;-87
2021/12/20 14:20:08;;;;;;;2.50;1.40;;;7.60;57.70;;;5.79;64.92;102168.22;8339295;22;20577;-89
2021/12/20 14:24:39;;;;;;;1.08;0.80;;;7.60;57.50;;;5.78;65.25;102174.31;8286708;28;20060;-88
2021/12/20 14:29:07;;;;;;;1.40;0.85;;;7.50;57.70;;;5.75;64.91;102185.56;8293166;28;20036;-88
2021/12/20 14:33:33;;;;;;;0.70;0.70;;;7.50;57.60;;;5.73;64.63;102191.63;8300358;28;20043;-87
2021/12/20 14:37:58;;;;;;;1.75;1.10;;;7.40;57.60;;;5.64;64.63;102189.97;8285762;28;20037;-90
2021/12/20 14:42:19;;;;;;;0.70;0.70;;;7.40;57.60;;;5.61;64.80;102181.41;8304361;28;20052;-88
2021/12/20 14:51:28;;;;;;;0.80;0.80;;;7.10;57.40;;;5.62;65.10;102196.94;8314160;28;20522;-88
2021/12/20 14:55:51;;;;;;;1.00;0.60;;;7.30;57.60;;;5.64;64.76;102202.94;8303638;28;20045;-85
2021/12/20 15:00:13;;;;;;;1.25;0.80;;;7.30;57.80;;;5.59;65.15;102196.97;8305137;28;20047;-88
2021/12/20 15:04:35;;;;;;;0.52;0.52;;;7.30;57.90;;;5.61;64.67;102197.78;8282361;28;20049;-88
2021/12/20 15:08:57;;;;;;;1.55;1.10;;;7.30;57.90;;;5.57;64.88;102198.72;8293149;28;20041;-87
2021/12/20 15:13:19;;;;;;;1.60;0.70;;;7.30;58.00;;;5.60;65.02;102210.78;8284030;28;20490;-86
2021/12/20 15:17:41;;;;;;;0.85;0.70;;;7.30;57.80;;;5.57;64.78;102209.09;8303386;28;20041;-86
2021/12/20 15:22:03;;;;;;;2.58;0.70;;;7.30;57.80;;;5.57;64.42;102206.50;8331965;28;20044;-86
2021/12/20 15:26:24;;;;;;;0.73;0.73;;;7.20;57.80;;;5.56;64.68;102215.13;8331659;28;20059;-87
2021/12/20 15:30:46;;;;;;;1.58;0.98;;;7.20;57.80;;;5.58;65.05;102218.56;8335089;28;20037;-86
2021/12/20 15:35:08;;;;;;;1.50;1.10;;;7.30;57.90;;;5.52;64.73;102211.72;8316062;28;20033;-89
2021/12/20 15:39:30;;;;;;;1.88;1.58;;;7.30;57.90;;;5.51;65.04;102211.75;8322960;28;20537;-85
2021/12/20 15:43:53;;;;;;;1.65;1.45;;;7.20;57.90;;;5.53;65.07;102225.53;8350479;28;20052;-87
2021/12/20 15:48:15;;;;;;;2.55;1.52;;;7.20;57.90;;;5.49;64.81;102224.69;8309941;28;20040;-91
2021/12/20 15:52:40;;;;;;;1.50;1.40;;;7.20;58.00;;;5.51;64.50;102230.72;8352862;28;20043;-87
2021/12/20 15:57:05;;;;;;;1.60;1.38;;;7.20;58.00;;;5.45;64.77;102217.81;8324854;28;20043;-89
2021/12/20 16:01:27;;;;;;;1.77;1.67;;;7.20;58.00;;;5.50;65.02;102235.91;8329541;28;20514;-85
2021/12/20 16:05:48;;;;;;;2.28;1.67;;;7.20;58.00;;;5.50;64.82;102241.09;8354463;28;20051;-86
2021/12/20 16:10:14;;;;;;;2.25;1.50;;;7.20;58.10;;;5.39;65.13;102222.22;8348967;28;20049;-87
2021/12/20 16:14:35;;;;;;;3.63;1.40;;;7.20;58.10;;;5.48;64.62;102237.66;8356828;28;20113;-86
2021/12/20 16:18:57;;;;;;;1.17;1.08;;;7.10;58.10;;;5.40;65.05;102229.97;8361833;28;20079;-84
2021/12/20 16:23:19;;;;;;;1.27;1.27;;;7.10;58.00;;;5.37;64.55;102224.81;8344245;28;20120;-85
2021/12/20 16:27:44;;;;;;;1.70;1.55;;;7.10;58.10;;;5.35;65.00;102236.06;8332413;28;20104;-86
2021/12/20 16:32:06;;;;;;;2.22;1.60;;;7.10;58.00;;;5.35;64.36;102238.63;8345273;28;20123;-85
2021/12/20 16:36:28;;;;;;;1.52;1.38;;;7.10;58.10;;;5.35;65.02;102230.88;8357018;28;20045;-86
2021/12/20 16:40:50;;;;;;;1.77;1.55;;;7.00;58.10;;;5.37;65.00;102244.69;8348000;28;20553;-86
2021/12/20 16:45:18;;;;;;;1.00;1.00;;;7.10;58.10;;;5.30;64.94;102234.38;8345385;28;20131;-85
2021/12/20 16:49:40;;;;;;;0.93;0.93;;;7.00;58.00;;;5.25;64.62;102230.13;8330769;28;20037;-85
2021/12/20 16:54:06;;;;;;;0.93;0.90;;;7.00;58.10;;;5.32;64.59;102234.38;8330304;28;20116;-85
2021/12/20 16:58:32;;;;;;;1.63;1.52;;;7.00;58.10;;;5.25;64.80;102227.53;8348025;28;20116;-86
2021/12/20 17:03:00;;;;;;;;;;;7.00;58.00;;;5.25;64.90;102230.13;8331319;28;20041;-86
2021/12/20 17:07:22;;;;;;;1.50;1.40;;;7.00;58.10;;;5.22;64.74;102249.13;8347231;28;19916;-86
2021/12/20 17:11:44;;;;;;;6.18;1.15;;;7.00;58.00;;;5.14;65.27;102232.78;8361985;22;21612;-78
2021/12/20 17:16:12;;;;;;;1.90;1.65;;;7.00;58.10;;;5.17;64.97;102237.94;8381136;28;20043;-79
2021/12/20 17:20:34;;;;;;;3.42;2.00;;;6.90;58.00;;;5.24;64.88;102252.56;8380972;28;20029;-78
2021/12/20 17:24:59;;;;;;;2.60;2.40;;;6.90;58.00;;;5.19;64.61;102246.56;8387025;28;20123;-80
2021/12/20 17:29:22;;;;;;;3.78;2.55;;;6.90;57.90;;;5.10;64.71;102244.03;8381901;28;20040;-80
2021/12/20 17:33:43;;;;;;;2.13;1.77;;;6.80;57.90;;;5.14;64.70;102258.69;8379362;28;20106;-78
2021/12/20 17:38:07;;;;;;;1.75;1.65;;;6.80;57.90;;;5.04;64.70;102257.88;8379702;28;20037;-78
2021/12/20 17:42:32;;;;;;;3.80;1.80;;;6.80;57.90;;;4.95;64.83;102251.94;8363300;28;20036;-80
2021/12/20 17:46:54;;;;;;;2.28;1.77;;;6.80;57.90;;;5.00;64.83;102261.38;8384940;28;20115;-78
2021/12/20 17:51:16;;;;;;;2.78;2.30;;;6.70;57.90;;;4.83;64.81;102248.56;8381405;28;20049;-79
2021/12/20 17:55:38;;;;;;;2.40;2.20;;;6.60;57.90;;;4.90;64.44;102269.22;8378775;28;20573;-79
2021/12/20 18:00:05;;;;;;;4.10;3.10;;;6.60;57.80;;;4.84;64.49;102270.13;8365734;28;20420;-79
2021/12/20 18:04:27;;;;;;;5.60;4.30;;;6.60;57.80;;;4.76;64.88;102264.13;8379918;28;20028;-79
2021/12/20 18:08:48;;;;;;;4.13;3.72;;;6.50;57.80;;;4.68;64.54;102258.16;8381272;28;20040;-79
2021/12/20 18:13:10;;;;;;;9.05;5.13;;;6.40;57.70;;;4.61;64.44;102265.06;8379290;28;20039;-78
2021/12/20 18:17:32;;;;;;;5.57;4.32;;;6.40;57.80;;;4.49;64.52;102252.22;8365786;28;20474;-78
2021/12/20 18:21:54;;;;;;;3.20;2.90;;;6.20;57.70;;;4.48;64.75;102266.00;8353902;28;20037;-78
2021/12/20 18:26:15;;;;;;;2.95;2.72;;;6.20;57.80;;;4.40;64.71;102269.50;8373071;28;20042;-80
2021/12/20 18:30:38;;;;;;;2.60;2.38;;;6.10;57.80;;;4.38;64.37;102271.22;8364017;28;20140;-79
2021/12/20 18:35:01;;;;;;;4.70;2.20;;;6.10;57.80;;;4.36;64.29;102274.69;8359692;28;20392;-78
2021/12/20 18:39:24;;;;;;;2.70;2.30;;;6.00;57.90;;;4.24;64.71;102267.84;8356113;28;20058;-78
2021/12/20 18:43:45;;;;;;;4.22;2.88;;;6.00;57.90;;;4.26;64.29;102285.94;8337063;28;20042;-79
2021/12/20 18:48:07;;;;;;;6.63;3.80;;;5.90;57.90;;;4.23;64.63;102286.81;8368582;28;20330;-79
2021/12/20 18:52:29;;;;;;;9.95;5.93;;;5.90;57.90;;;4.18;64.51;102283.38;8358353;28;20046;-79
2021/12/20 18:56:51;;;;;;;14.90;7.57;;;5.80;57.90;;;4.12;64.54;102288.56;8355299;28;20058;-80
2021/12/20 19:01:13;;;;;;;19.25;8.60;;;5.80;57.90;;;4.07;64.63;102293.75;8363497;28;20036;-79
2021/12/20 19:05:38;;;;;;;14.88;8.15;;;5.60;57.90;;;3.99;64.53;102290.31;8343915;28;20424;-79